createdAt,value
2019-04-25T00:03:17.759Z,6.70
2019-04-25T00:08:09.143Z,6.70
2019-04-25T00:13:04.085Z,6.70
2019-04-25T00:17:58.618Z,6.60
2019-04-25T00:22:51.501Z,6.60
2019-04-25T00:27:47.351Z,6.50
2019-04-25T00:32:35.200Z,6.50
2019-04-25T00:37:28.851Z,6.50
2019-04-25T00:42:20.279Z,6.40
2019-04-25T00:47:12.452Z,6.40
2019-04-25T00:52:03.199Z,6.20
2019-04-25T00:56:54.572Z,6.10
2019-04-25T01:01:49.514Z,6.00
2019-04-25T01:11:32.020Z,5.90
2019-04-25T01:16:22.722Z,5.90
2019-04-25T01:21:14.758Z,5.80
2019-04-25T01:26:05.532Z,5.80
2019-04-25T01:30:56.867Z,5.70
2019-04-25T01:35:49.093Z,5.80
2019-04-25T01:40:39.671Z,5.90
2019-04-25T01:45:31.212Z,5.80
2019-04-25T01:50:23.954Z,5.80
2019-04-25T01:55:16.285Z,5.70
2019-04-25T02:00:07.874Z,5.70
2019-04-25T02:05:00.817Z,5.50
2019-04-25T02:09:55.777Z,5.50
2019-04-25T02:14:44.755Z,5.60
2019-04-25T02:19:36.602Z,5.60
2019-04-25T02:24:27.701Z,5.70
2019-04-25T02:29:19.209Z,5.60
2019-04-25T02:34:10.656Z,5.60
2019-04-25T02:39:11.168Z,5.60
2019-04-25T02:44:10.537Z,5.50
2019-04-25T02:49:06.561Z,5.30
2019-04-25T02:53:45.543Z,5.30
2019-04-25T02:58:37.110Z,5.30
2019-04-25T03:03:30.948Z,5.30
2019-04-25T03:08:25.147Z,5.30
2019-04-25T03:13:15.686Z,5.40
2019-04-25T03:18:15.562Z,5.50
2019-04-25T03:22:57.043Z,5.40
2019-04-25T03:27:48.531Z,5.40
2019-04-25T03:32:45.371Z,5.40
2019-04-25T03:37:35.901Z,5.40
2019-04-25T03:42:25.073Z,5.40
2019-04-25T03:47:16.490Z,5.30
2019-04-25T03:52:08.603Z,5.40
2019-04-25T03:56:59.249Z,5.30
2019-04-25T04:01:50.593Z,5.30
2019-04-25T04:06:42.020Z,5.40
2019-04-25T04:11:34.399Z,5.50
2019-04-25T04:16:24.818Z,5.40
2019-04-25T04:21:17.939Z,5.40
2019-04-25T04:26:08.037Z,5.30
2019-04-25T04:30:59.030Z,5.50
2019-04-25T04:35:50.392Z,5.60
2019-04-25T04:40:44.436Z,5.60
2019-04-25T04:45:35.427Z,5.70
2019-04-25T04:50:29.041Z,5.80
2019-04-25T04:55:23.526Z,5.80
2019-04-25T05:00:17.111Z,5.90
2019-04-25T05:05:05.855Z,6.20
2019-04-25T05:09:57.238Z,9.40
2019-04-25T05:14:50.849Z,14.50
2019-04-25T05:19:44.050Z,17.30
2019-04-25T05:24:34.539Z,18.80
2019-04-25T05:29:27.319Z,20.80
2019-04-25T05:34:26.395Z,22.90
2019-04-25T05:39:20.322Z,23.80
2019-04-25T05:44:06.469Z,25.10
2019-04-25T05:48:57.898Z,27.70
2019-04-25T05:53:49.343Z,28.00
2019-04-25T05:58:44.189Z,24.60
2019-04-25T06:03:34.632Z,21.10
2019-04-25T06:08:28.483Z,21.00
2019-04-25T06:13:19.434Z,18.40
2019-04-25T06:18:08.823Z,15.40
2019-04-25T06:23:00.244Z,15.10
2019-04-25T06:27:59.677Z,14.40
2019-04-25T06:32:44.375Z,13.50
2019-04-25T06:37:35.725Z,13.60
2019-04-25T06:42:27.280Z,13.20
2019-04-25T06:47:17.232Z,12.90
2019-04-25T06:52:08.596Z,12.90
2019-04-25T06:57:00.093Z,13.20
2019-04-25T07:01:51.381Z,13.30
2019-04-25T07:06:46.112Z,13.60
2019-04-25T07:11:36.244Z,13.90
2019-04-25T07:16:27.673Z,14.20
2019-04-25T07:21:16.972Z,14.40
2019-04-25T07:26:08.367Z,14.60
2019-04-25T07:30:59.741Z,14.80
2019-04-25T07:35:51.166Z,15.20
2019-04-25T07:40:44.050Z,15.50
2019-04-25T07:45:36.704Z,15.60
2019-04-25T07:50:28.290Z,15.90
2019-04-25T07:55:16.717Z,15.90
2019-04-25T08:00:08.046Z,16.20
2019-04-25T08:04:59.488Z,16.40
2019-04-25T08:09:50.817Z,16.60
2019-04-25T08:14:46.063Z,16.80
2019-04-25T08:19:36.000Z,17.00
2019-04-25T08:24:25.052Z,17.20
2019-04-25T08:29:16.446Z,17.40
2019-04-25T08:34:07.859Z,17.50
2019-04-25T08:38:59.197Z,17.70
2019-04-25T08:43:50.588Z,17.80
2019-04-25T08:48:44.614Z,18.00
2019-04-25T08:53:37.032Z,18.00
2019-04-25T08:58:24.783Z,18.20
2019-04-25T09:03:16.187Z,18.40
2019-04-25T09:08:07.567Z,18.60
2019-04-25T09:12:58.940Z,18.70
2019-04-25T09:17:50.383Z,18.90
2019-04-25T09:22:45.527Z,19.20
2019-04-25T09:27:41.912Z,19.40
2019-04-25T09:32:24.593Z,19.60
2019-04-25T09:37:15.893Z,19.70
2019-04-25T09:42:07.336Z,19.70
2019-04-25T09:46:58.642Z,20.10
2019-04-25T09:51:50.051Z,20.30
2019-04-25T09:56:41.400Z,20.40
2019-04-25T10:01:34.531Z,20.50
2019-04-25T10:06:24.249Z,20.60
2019-04-25T10:16:07.009Z,21.20
2019-04-25T10:20:58.395Z,21.60
2019-04-25T10:25:49.798Z,21.80
2019-04-25T10:30:41.731Z,21.80
2019-04-25T10:36:01.151Z,22.00
2019-04-25T10:40:25.621Z,21.90
2019-04-25T10:45:26.369Z,21.80
2019-04-25T10:50:06.781Z,22.20
2019-04-25T10:55:00.483Z,22.40
2019-04-25T11:00:09.967Z,22.40
2019-04-25T11:04:50.073Z,22.50
2019-04-25T11:09:34.978Z,22.70
2019-04-25T11:14:26.041Z,22.70
2019-04-25T11:19:17.484Z,22.70
2019-04-25T11:24:08.862Z,22.90
2019-04-25T11:29:02.486Z,23.00
2019-04-25T11:33:55.147Z,23.00
2019-04-25T11:38:45.939Z,23.10
2019-04-25T11:43:36.750Z,23.30
2019-04-25T11:48:28.175Z,23.60
2019-04-25T11:53:20.822Z,24.20
2019-04-25T11:58:10.967Z,24.50
2019-04-25T12:03:04.176Z,24.70
2019-04-25T12:07:53.738Z,24.80
2019-04-25T12:12:47.871Z,24.80
2019-04-25T12:17:36.571Z,24.60
2019-04-25T12:22:27.903Z,24.90
2019-04-25T12:27:19.325Z,25.00
2019-04-25T12:32:10.712Z,24.50
2019-04-25T12:37:02.142Z,23.80
2019-04-25T12:41:57.447Z,23.80
2019-04-25T12:46:46.588Z,23.80
2019-04-25T12:51:36.349Z,24.00
2019-04-25T12:56:27.754Z,24.00
2019-04-25T13:01:19.101Z,23.90
2019-04-25T13:06:10.521Z,24.10
2019-04-25T13:15:55.506Z,24.60
2019-04-25T13:20:46.961Z,24.70
2019-04-25T13:25:38.319Z,24.60
2019-04-25T13:30:29.809Z,24.70
2019-04-25T13:35:21.119Z,24.80
2019-04-25T13:40:12.507Z,24.90
2019-04-25T13:45:05.679Z,24.90
2019-04-25T13:49:55.299Z,24.90
2019-04-25T13:54:46.632Z,25.10
2019-04-25T13:59:38.023Z,25.10
2019-04-25T14:04:30.119Z,25.00
2019-04-25T14:09:27.056Z,25.00
2019-04-25T14:14:12.244Z,25.10
2019-04-25T14:19:03.589Z,25.50
2019-04-25T14:23:55.041Z,25.50
2019-04-25T14:28:46.418Z,25.40
2019-04-25T14:33:37.757Z,24.90
2019-04-25T14:38:30.538Z,24.80
2019-04-25T14:43:22.751Z,24.80
2019-04-25T14:48:14.354Z,24.70
2019-04-25T14:53:05.825Z,24.60
2019-04-25T14:57:57.155Z,24.30
2019-04-25T15:02:48.559Z,24.30
2019-04-25T15:07:41.248Z,24.40
2019-04-25T15:12:32.404Z,24.40
2019-04-25T15:17:24.282Z,24.70
2019-04-25T15:22:14.267Z,24.70
2019-04-25T15:27:07.901Z,24.80
2019-04-25T15:31:59.421Z,24.80
2019-04-25T15:36:50.740Z,24.80
2019-04-25T15:41:42.142Z,24.90
2019-04-25T15:46:34.642Z,25.00
2019-04-25T15:51:27.309Z,25.00
2019-04-25T15:56:16.264Z,25.10
2019-04-25T16:01:07.722Z,25.20
2019-04-25T16:05:59.160Z,25.20
2019-04-25T16:10:50.546Z,25.30
2019-04-25T16:15:42.199Z,24.90
2019-04-25T16:20:34.178Z,24.90
2019-04-25T16:25:26.970Z,25.00
2019-04-25T16:30:18.428Z,25.00
2019-04-25T16:35:09.820Z,25.00
2019-04-25T16:40:01.193Z,25.00
2019-04-25T16:44:52.588Z,24.90
2019-04-25T16:49:44.070Z,24.80
2019-04-25T16:54:36.522Z,24.40
2019-04-25T16:59:27.005Z,24.40
2019-04-25T17:04:20.539Z,24.00
2019-04-25T17:09:09.767Z,23.90
2019-04-25T17:14:01.192Z,23.70
2019-04-25T17:18:52.632Z,23.60
2019-04-25T17:23:44.287Z,23.30
2019-04-25T17:33:29.109Z,23.00
2019-04-25T17:38:20.411Z,23.00
2019-04-25T17:43:12.261Z,22.10
2019-04-25T17:48:03.217Z,21.30
2019-04-25T17:52:54.655Z,20.80
2019-04-25T17:57:48.235Z,20.40
2019-04-25T18:02:39.763Z,19.90
2019-04-25T18:07:31.098Z,19.50
2019-04-25T18:12:22.488Z,19.50
2019-04-25T18:17:13.818Z,18.90
2019-04-25T18:22:05.226Z,18.70
2019-04-25T18:26:56.632Z,17.60
2019-04-25T18:31:49.127Z,17.60
2019-04-25T18:36:40.431Z,16.70
2019-04-25T18:41:30.935Z,16.30
2019-04-25T18:46:22.329Z,15.90
2019-04-25T18:51:13.727Z,15.90
2019-04-25T18:56:07.410Z,15.40
2019-04-25T19:00:58.941Z,15.30
2019-04-25T19:05:50.362Z,14.90
2019-04-25T19:10:42.699Z,14.90
2019-04-25T19:15:33.220Z,14.70
2019-04-25T19:20:24.614Z,14.10
2019-04-25T19:25:16.121Z,13.80
2019-04-25T19:30:07.549Z,13.80
2019-04-25T19:34:58.944Z,13.60
2019-04-25T19:39:50.290Z,13.30
2019-04-25T19:44:44.835Z,12.80
2019-04-25T19:49:35.367Z,12.80
2019-04-25T19:54:26.770Z,12.60
2019-04-25T19:59:18.081Z,12.20
2019-04-25T20:04:09.529Z,12.10
2019-04-25T20:09:01.030Z,12.10
2019-04-25T20:13:53.569Z,12.00
2019-04-25T20:18:46.116Z,11.80
2019-04-25T20:23:35.219Z,11.70
2019-04-25T20:28:26.654Z,11.60
2019-04-25T20:33:18.033Z,11.40
2019-04-25T20:38:09.495Z,11.30
2019-04-25T20:43:00.920Z,11.10
2019-04-25T20:47:52.784Z,11.00
2019-04-25T20:52:43.550Z,10.80
2019-04-25T20:57:34.981Z,10.90
2019-04-25T21:02:26.428Z,10.80
2019-04-25T21:07:17.761Z,10.70
2019-04-25T21:12:09.168Z,10.70
2019-04-25T21:17:00.566Z,10.60
2019-04-25T21:21:52.436Z,10.60
2019-04-25T21:26:45.566Z,10.40
2019-04-25T21:31:37.007Z,10.40
2019-04-25T21:36:30.606Z,10.20
2019-04-25T21:41:22.884Z,10.20
2019-04-25T21:46:14.316Z,10.10
2019-04-25T21:51:04.830Z,10.10
2019-04-25T21:55:58.003Z,9.90
2019-04-25T22:00:48.480Z,10.00
2019-04-25T22:05:38.975Z,9.90
2019-04-25T22:10:30.413Z,9.80
2019-04-25T22:15:21.816Z,9.80
2019-04-25T22:20:14.080Z,9.60
2019-04-25T22:25:05.283Z,9.60
2019-04-25T22:29:58.458Z,9.40
2019-04-25T22:34:53.356Z,9.50
2019-04-25T22:39:38.952Z,9.40
2019-04-25T22:44:31.016Z,9.30
2019-04-25T22:49:21.526Z,9.20
2019-04-25T22:54:12.961Z,9.20
2019-04-25T22:59:05.427Z,9.10
2019-04-25T23:03:56.005Z,9.00
2019-04-25T23:08:47.124Z,8.90
2019-04-25T23:13:38.803Z,8.70
2019-04-25T23:18:29.924Z,8.50
2019-04-25T23:23:21.281Z,8.40
2019-04-25T23:28:14.445Z,8.40
2019-04-25T23:33:07.055Z,8.40
2019-04-25T23:37:55.456Z,8.30
2019-04-25T23:42:46.813Z,8.20
2019-04-25T23:47:38.725Z,8.10
2019-04-25T23:52:29.724Z,8.00
2019-04-25T23:57:23.252Z,7.70
